Time;durP1;ratioP1;P1;durP2;ratioP2;P2;SDS_P1;SDS_P2;PMS_P1;PMS_P2;Temp;Humidity;BMP_temperature;BMP_pressure;BME280_temperature;BME280_humidity;BME280_pressure;Samples;Min_cycle;Max_cycle;Signal;HPM_P1;HPM_P2
2023/09/23 09:01:40;;;;;;;7.05;3.28;;;15.00;98.40;;;;;;5066007;27;1285420;-79
2023/09/23 09:04:06;;;;;;;8.90;3.72;;;15.80;98.30;;;;;;5099226;28;20012;-79
2023/09/23 09:06:32;;;;;;;8.18;3.50;;;15.80;98.00;;;;;;5069534;28;20013;-79
2023/09/23 09:08:58;;;;;;;6.57;2.47;;;15.80;98.10;;;;;;5089952;28;20024;-79
2023/09/23 09:11:24;;;;;;;5.85;2.08;;;15.80;98.30;;;;;;5066012;28;20021;-80
2023/09/23 09:13:49;;;;;;;6.25;2.33;;;15.80;98.30;;;;;;5052121;28;20061;-80
2023/09/23 09:16:20;;;;;;;8.30;2.65;;;15.90;98.10;;;;;;5068484;28;20055;-80
2023/09/23 09:18:50;;;;;;;6.32;2.25;;;15.80;97.90;;;;;;5075835;28;20020;-79
2023/09/23 09:21:16;;;;;;;5.68;1.70;;;15.80;97.80;;;;;;5105339;28;20032;-80
2023/09/23 09:23:41;;;;;;;4.32;1.73;;;15.80;97.70;;;;;;5092321;28;20077;-79
2023/09/23 09:26:07;;;;;;;6.47;1.95;;;15.80;97.60;;;;;;5076504;28;20047;-79
2023/09/23 09:28:33;;;;;;;7.22;2.45;;;15.70;97.50;;;;;;5096954;28;20378;-80
2023/09/23 09:30:59;;;;;;;5.30;2.22;;;15.60;97.20;;;;;;5076446;28;20021;-79
2023/09/23 09:33:26;;;;;;;6.38;2.38;;;15.60;97.20;;;;;;5051136;28;20027;-79
2023/09/23 09:35:56;;;;;;;6.80;2.38;;;15.50;97.30;;;;;;5063891;28;20442;-79
2023/09/23 09:38:23;;;;;;;6.25;2.17;;;15.50;97.40;;;;;;5071511;28;20028;-79
2023/09/23 09:40:51;;;;;;;13.88;2.40;;;15.50;97.60;;;;;;5089710;28;20475;-79
2023/09/23 09:43:20;;;;;;;8.32;1.95;;;15.40;97.60;;;;;;5071460;28;20383;-79
2023/09/23 09:45:47;;;;;;;8.10;2.15;;;15.50;97.70;;;;;;5089506;28;20027;-79
2023/09/23 09:48:14;;;;;;;6.00;2.03;;;15.40;97.80;;;;;;5071162;28;20021;-80
2023/09/23 09:50:39;;;;;;;9.10;2.40;;;15.50;97.90;;;;;;5071189;28;20032;-78
2023/09/23 09:53:06;;;;;;;9.52;2.50;;;15.50;97.90;;;;;;5071259;28;20027;-79
2023/09/23 09:55:33;;;;;;;7.32;2.25;;;15.50;98.00;;;;;;5089195;28;20109;-78
2023/09/23 09:58:01;;;;;;;5.88;2.17;;;15.50;98.10;;;;;;5089456;28;20016;-79
2023/09/23 10:00:35;;;;;;;6.35;2.70;;;15.50;98.20;;;;;;5088960;28;20138;-83
2023/09/23 10:03:08;;;;;;;7.80;2.35;;;15.50;98.20;;;;;;5071125;28;20047;-81
2023/09/23 10:05:54;;;;;;;8.15;2.85;;;15.50;98.20;;;;;;5071107;28;20035;-81
2023/09/23 10:08:24;;;;;;;6.82;2.00;;;15.50;98.40;;;;;;5088351;28;20040;-76
2023/09/23 10:10:58;;;;;;;7.82;2.85;;;15.60;98.50;;;;;;5068838;28;20020;-77
2023/09/23 10:13:27;;;;;;;7.63;2.55;;;15.60;98.60;;;;;;5057426;28;20460;-76
2023/09/23 10:16:05;;;;;;;5.80;2.17;;;15.70;98.60;;;;;;5057394;28;20169;-77
2023/09/23 10:18:42;;;;;;;2.90;1.33;;;15.80;98.70;;;;;;5057625;28;20028;-76
2023/09/23 10:21:20;;;;;;;7.47;1.85;;;15.80;98.80;;;;;;5074928;28;20021;-76
2023/09/23 10:23:46;;;;;;;6.53;2.28;;;15.90;98.60;;;;;;5073722;28;20031;-77
2023/09/23 10:26:13;;;;;;;6.43;1.98;;;16.00;98.60;;;;;;5074717;28;20024;-77
2023/09/23 10:28:39;;;;;;;8.13;2.30;;;16.00;98.50;;;;;;5074655;28;20516;-77
2023/09/23 10:31:06;;;;;;;6.05;2.10;;;16.10;98.50;;;;;;5074077;28;20016;-76
2023/09/23 10:33:35;;;;;;;5.55;2.22;;;16.20;98.40;;;;;;5076977;28;20099;-77
2023/09/23 10:36:03;;;;;;;5.03;2.13;;;16.30;98.20;;;;;;5066691;28;20017;-77
2023/09/23 10:38:31;;;;;;;7.20;2.00;;;16.50;98.30;;;;;;5075243;28;20385;-78
2023/09/23 10:40:57;;;;;;;7.05;1.58;;;16.70;98.40;;;;;;5074891;28;20029;-76
2023/09/23 10:43:23;;;;;;;8.20;1.95;;;17.00;98.30;;;;;;5074902;28;20385;-85
2023/09/23 10:45:53;;;;;;;5.00;1.30;;;17.30;98.50;;;;;;5075440;28;20024;-85
2023/09/23 10:48:19;;;;;;;4.75;1.63;;;18.00;99.50;;;;;;5075967;28;20380;-79
2023/09/23 10:50:45;;;;;;;7.53;1.45;;;18.60;98.10;;;;;;5083644;28;20020;-81
2023/09/23 10:53:15;;;;;;;4.03;1.30;;;18.80;96.60;;;;;;5076799;28;20024;-83
2023/09/23 10:55:41;;;;;;;6.28;1.40;;;19.00;96.10;;;;;;5076398;28;20048;-82
2023/09/23 10:58:09;;;;;;;4.78;1.30;;;19.00;94.60;;;;;;5078555;28;20068;-80
2023/09/23 11:00:37;;;;;;;5.13;1.15;;;19.00;93.50;;;;;;5080123;28;20036;-83
2023/09/23 11:03:09;;;;;;;7.20;1.92;;;18.80;91.80;;;;;;5084610;28;20032;-80
2023/09/23 11:05:39;;;;;;;6.90;1.65;;;18.70;91.60;;;;;;5071206;28;20016;-80
2023/09/23 11:08:15;;;;;;;4.90;1.30;;;18.60;91.40;;;;;;5075234;28;20024;-79
2023/09/23 11:10:48;;;;;;;7.60;1.30;;;18.60;91.70;;;;;;5080545;28;20128;-80
2023/09/23 11:13:15;;;;;;;5.10;1.17;;;18.50;91.20;;;;;;5082212;28;20108;-79
2023/09/23 11:15:45;;;;;;;3.33;1.20;;;18.40;91.20;;;;;;5085175;28;20024;-80
2023/09/23 11:18:16;;;;;;;5.50;1.45;;;18.40;91.10;;;;;;5062297;28;20020;-81
2023/09/23 11:20:46;;;;;;;5.97;1.77;;;18.20;90.60;;;;;;5086502;28;20032;-79
2023/09/23 11:23:12;;;;;;;8.57;1.60;;;18.10;90.50;;;;;;5082461;28;20055;-79
2023/09/23 11:25:44;;;;;;;5.43;1.40;;;17.90;90.70;;;;;;5071517;28;20463;-80
2023/09/23 11:28:24;;;;;;;7.82;1.83;;;17.80;90.70;;;;;;5062129;28;20086;-79
2023/09/23 11:30:52;;;;;;;18.13;3.10;;;17.70;91.60;;;;;;5072837;28;20040;-78
2023/09/23 11:33:19;;;;;;;9.70;2.35;;;17.30;93.00;;;;;;5075764;28;20024;-80
2023/09/23 11:35:45;;;;;;;8.02;3.47;;;16.80;94.10;;;;;;5089288;28;20017;-78
2023/09/23 11:38:12;;;;;;;6.50;3.05;;;16.50;95.90;;;;;;5056173;28;20036;-78
2023/09/23 11:40:38;;;;;;;8.80;4.22;;;16.20;96.80;;;;;;5073762;28;20046;-78
2023/09/23 11:43:04;;;;;;;7.45;3.30;;;15.90;97.60;;;;;;5074026;28;20130;-82
2023/09/23 11:45:30;;;;;;;8.52;3.67;;;15.70;98.40;;;;;;5070900;28;20021;-82
2023/09/23 11:47:56;;;;;;;9.82;3.55;;;15.60;99.50;;;;;;5073248;28;20036;-82
2023/09/23 11:50:26;;;;;;;9.32;4.32;;;15.50;99.80;;;;;;5055875;28;20031;-83
2023/09/23 11:52:54;;;;;;;7.97;4.00;;;15.50;99.90;;;;;;5073686;28;20032;-82
2023/09/23 11:55:22;;;;;;;6.10;3.63;;;15.60;99.90;;;;;;5073268;28;20028;-82
2023/09/23 11:57:51;;;;;;;9.68;4.60;;;15.70;99.90;;;;;;5055421;28;20039;-82
2023/09/23 12:00:19;;;;;;;9.70;4.82;;;15.70;99.90;;;;;;5055462;28;20052;-81
2023/09/23 12:02:45;;;;;;;8.70;4.47;;;15.80;99.90;;;;;;5055696;28;20024;-82
2023/09/23 12:05:12;;;;;;;10.32;4.32;;;15.80;99.90;;;;;;5073202;28;20498;-79
2023/09/23 12:07:38;;;;;;;7.05;4.57;;;15.80;99.90;;;;;;5073208;28;20033;-82
2023/09/23 12:10:04;;;;;;;9.85;4.68;;;15.80;99.90;;;;;;5073291;28;20032;-82
2023/09/23 12:12:31;;;;;;;8.45;3.80;;;15.90;99.90;;;;;;5055461;28;20028;-80
2023/09/23 12:14:57;;;;;;;8.68;4.10;;;16.00;99.90;;;;;;5074082;28;20028;-81
2023/09/23 12:17:23;;;;;;;7.60;3.60;;;16.10;99.90;;;;;;5073268;28;20388;-82
2023/09/23 12:19:48;;;;;;;10.65;3.83;;;16.10;99.90;;;;;;5055102;28;20021;-78
2023/09/23 12:22:17;;;;;;;8.93;3.80;;;16.10;99.90;;;;;;5073112;28;20102;-77
2023/09/23 12:24:44;;;;;;;11.32;3.72;;;16.10;99.90;;;;;;5055113;28;20021;-79
2023/09/23 12:27:10;;;;;;;6.97;2.60;;;16.00;99.90;;;;;;5072972;28;20025;-77
2023/09/23 12:29:35;;;;;;;8.45;3.20;;;16.00;99.90;;;;;;5054786;28;20025;-77
2023/09/23 12:32:02;;;;;;;4.32;2.10;;;15.90;99.90;;;;;;5055059;28;20024;-77
2023/09/23 12:34:29;;;;;;;8.05;3.20;;;16.00;99.90;;;;;;5072780;28;20020;-76
2023/09/23 12:36:54;;;;;;;7.55;3.03;;;16.00;99.90;;;;;;5055083;28;20395;-76
2023/09/23 12:39:22;;;;;;;7.03;2.90;;;16.20;99.90;;;;;;5074379;28;20020;-78
2023/09/23 12:41:48;;;;;;;5.22;2.97;;;16.50;99.90;;;;;;5065030;28;20039;-83
2023/09/23 12:44:13;;;;;;;6.32;2.00;;;17.00;99.90;;;;;;5056341;28;20035;-78
2023/09/23 12:46:39;;;;;;;6.60;1.73;;;17.50;99.90;;;;;;5073224;28;20033;-83
2023/09/23 12:49:05;;;;;;;5.10;1.60;;;18.10;99.90;;;;;;5054819;28;20527;-80
2023/09/23 12:51:30;;;;;;;5.18;1.33;;;18.60;99.90;;;;;;5072754;28;20082;-85
2023/09/23 12:53:57;;;;;;;6.00;1.90;;;18.80;99.90;;;;;;5072890;28;20016;-86
2023/09/23 12:56:23;;;;;;;6.20;1.33;;;18.70;99.90;;;;;;5054979;28;20115;-81
2023/09/23 12:58:49;;;;;;;4.70;1.83;;;18.50;99.90;;;;;;5073036;28;20045;-78
2023/09/23 13:01:17;;;;;;;6.53;2.05;;;18.20;99.90;;;;;;5072295;28;20091;-78
2023/09/23 13:03:43;;;;;;;7.10;1.60;;;18.00;99.90;;;;;;5054380;28;20024;-77
2023/09/23 13:06:08;;;;;;;5.38;1.92;;;17.70;99.90;;;;;;5057622;28;20036;-76
2023/09/23 13:08:34;;;;;;;9.88;2.00;;;17.60;99.90;;;;;;5077247;28;20039;-78
2023/09/23 13:11:00;;;;;;;9.48;1.98;;;17.40;99.90;;;;;;5074017;28;20072;-78
2023/09/23 13:13:26;;;;;;;4.95;1.20;;;17.20;99.90;;;;;;5083389;28;20383;-79
2023/09/23 13:15:52;;;;;;;4.65;1.40;;;17.10;99.90;;;;;;5081794;28;20472;-80
2023/09/23 13:18:18;;;;;;;3.35;1.10;;;17.00;99.90;;;;;;5081955;28;20032;-79
2023/09/23 13:20:45;;;;;;;3.70;0.88;;;17.20;99.90;;;;;;5073455;28;20028;-81
2023/09/23 13:23:11;;;;;;;3.35;0.80;;;17.60;99.90;;;;;;5081357;28;20028;-80
2023/09/23 13:25:37;;;;;;;2.65;0.63;;;18.20;99.90;;;;;;5071987;28;20020;-81
2023/09/23 13:28:03;;;;;;;3.88;0.80;;;18.90;99.90;;;;;;5073606;28;20024;-84
2023/09/23 13:30:29;;;;;;;5.13;0.60;;;19.50;99.90;;;;;;5066170;28;20016;-80
2023/09/23 13:32:55;;;;;;;3.85;0.65;;;20.20;99.90;;;;;;5072448;28;20024;-84
2023/09/23 13:35:21;;;;;;;2.25;0.50;;;20.80;99.90;;;;;;5073522;28;20495;-79
2023/09/23 13:37:46;;;;;;;2.25;0.60;;;21.40;98.30;;;;;;5080789;28;20055;-79
2023/09/23 13:40:13;;;;;;;3.10;0.50;;;21.70;96.10;;;;;;5082668;28;20481;-78
2023/09/23 13:42:39;;;;;;;2.70;0.40;;;22.00;94.80;;;;;;5072751;28;20021;-77
2023/09/23 13:45:05;;;;;;;3.13;0.40;;;22.20;94.20;;;;;;5070790;28;20016;-79
2023/09/23 13:47:33;;;;;;;1.45;0.40;;;22.60;93.40;;;;;;5075314;28;20467;-79
2023/09/23 13:50:00;;;;;;;2.35;0.40;;;23.00;91.20;;;;;;5085917;28;20108;-79
2023/09/23 13:52:26;;;;;;;3.75;0.50;;;23.10;88.50;;;;;;5082170;28;20032;-82
2023/09/23 13:54:52;;;;;;;2.17;0.40;;;23.00;85.80;;;;;;5057600;28;20016;-83
2023/09/23 13:57:18;;;;;;;2.45;0.40;;;22.80;84.40;;;;;;5076045;28;20025;-82
2023/09/23 13:59:46;;;;;;;1.25;0.30;;;22.60;82.80;;;;;;5075604;28;20388;-85
2023/09/23 14:02:14;;;;;;;2.08;0.45;;;22.20;81.90;;;;;;5075911;28;20108;-81
2023/09/23 14:04:40;;;;;;;1.20;0.40;;;22.20;82.80;;;;;;5058030;28;20361;-81
2023/09/23 14:07:06;;;;;;;1.30;0.32;;;22.60;82.90;;;;;;5057651;28;20012;-82
2023/09/23 14:09:31;;;;;;;2.70;0.43;;;22.80;80.70;;;;;;5075784;28;20112;-88
2023/09/23 14:11:57;;;;;;;2.63;0.50;;;22.80;79.50;;;;;;5057979;28;20357;-82
2023/09/23 14:14:22;;;;;;;2.75;0.50;;;22.70;77.80;;;;;;5057666;28;20086;-76
2023/09/23 14:16:48;;;;;;;2.28;0.45;;;22.70;77.70;;;;;;5075283;28;20031;-77
2023/09/23 14:19:15;;;;;;;6.03;0.60;;;22.50;76.90;;;;;;5075158;28;20017;-75
2023/09/23 14:21:40;;;;;;;1.92;0.38;;;22.10;76.00;;;;;;5075414;28;20025;-79
2023/09/23 14:24:06;;;;;;;2.47;0.43;;;21.80;76.40;;;;;;5057401;28;20067;-76
2023/09/23 14:26:32;;;;;;;5.03;0.70;;;21.40;76.70;;;;;;5057290;28;20021;-76
2023/09/23 14:28:58;;;;;;;4.93;0.60;;;21.10;77.50;;;;;;5075333;28;20017;-76
2023/09/23 14:31:24;;;;;;;4.60;0.77;;;20.80;78.30;;;;;;5075676;28;20025;-79
2023/09/23 14:33:49;;;;;;;2.17;0.63;;;20.50;79.00;;;;;;5075079;28;20043;-82
2023/09/23 14:36:15;;;;;;;1.65;0.60;;;20.20;80.20;;;;;;5074956;28;20060;-83
2023/09/23 14:42:11;;;;;;;3.03;0.63;;;20.10;81.40;;;;;;5075386;28;20458;-81
2023/09/23 14:44:36;;;;;;;4.28;0.70;;;20.00;82.10;;;;;;5074068;28;20158;-82
2023/09/23 14:47:02;;;;;;;3.88;0.60;;;20.00;81.80;;;;;;5074801;28;20074;-84
2023/09/23 14:49:28;;;;;;;3.45;0.50;;;20.20;82.90;;;;;;5074300;28;20028;-83
2023/09/23 14:51:53;;;;;;;2.28;0.47;;;21.00;83.30;;;;;;5074761;28;20029;-83
2023/09/23 14:54:19;;;;;;;3.13;0.65;;;21.70;81.20;;;;;;5076604;28;20085;-84
2023/09/23 14:56:44;;;;;;;2.13;0.60;;;22.30;77.50;;;;;;5084457;28;20052;-82
2023/09/23 14:59:10;;;;;;;4.72;0.50;;;22.40;76.00;;;;;;5081435;28;20099;-82
2023/09/23 15:01:36;;;;;;;2.38;0.30;;;22.30;75.00;;;;;;5074780;28;20102;-82
2023/09/23 15:04:02;;;;;;;3.55;0.50;;;22.00;73.40;;;;;;5074725;28;20390;-81
2023/09/23 15:06:28;;;;;;;5.80;0.80;;;21.60;72.80;;;;;;5075114;28;20024;-82
2023/09/23 15:08:55;;;;;;;3.72;0.75;;;21.20;73.60;;;;;;5075232;28;20021;-83
2023/09/23 15:11:21;;;;;;;3.85;0.80;;;20.80;74.30;;;;;;5074856;28;20056;-82
2023/09/23 15:13:47;;;;;;;2.90;0.60;;;20.40;75.40;;;;;;5074760;28;20054;-79
2023/09/23 15:16:12;;;;;;;3.42;0.70;;;20.10;76.60;;;;;;5073290;28;20032;-79
2023/09/23 15:18:38;;;;;;;4.25;0.73;;;19.80;78.30;;;;;;5074334;28;20383;-80
2023/09/23 15:21:05;;;;;;;3.60;0.90;;;19.50;79.30;;;;;;5074402;28;20116;-81
2023/09/23 15:23:32;;;;;;;2.78;0.52;;;19.40;80.00;;;;;;5074770;28;20020;-80
2023/09/23 15:25:58;;;;;;;5.55;1.10;;;19.30;81.00;;;;;;5074347;28;20032;-81
2023/09/23 15:28:23;;;;;;;5.13;0.82;;;19.20;81.50;;;;;;5065921;28;20052;-76
2023/09/23 15:30:49;;;;;;;3.90;0.90;;;19.10;82.30;;;;;;5072757;28;20121;-76
2023/09/23 15:33:15;;;;;;;4.05;0.80;;;19.10;83.00;;;;;;5066004;28;20147;-77
2023/09/23 15:35:40;;;;;;;2.95;1.10;;;19.10;83.20;;;;;;5055732;28;20021;-77
2023/09/23 15:38:06;;;;;;;4.65;1.15;;;19.10;83.50;;;;;;5057821;28;20024;-77
2023/09/23 15:40:32;;;;;;;5.13;1.27;;;19.10;83.80;;;;;;5073930;28;20031;-77
2023/09/23 15:42:57;;;;;;;5.53;1.13;;;19.10;84.00;;;;;;5073978;28;20032;-77
2023/09/23 15:45:23;;;;;;;3.47;0.80;;;19.10;84.40;;;;;;5073891;28;20092;-77
2023/09/23 15:47:49;;;;;;;2.78;0.70;;;18.90;83.90;;;;;;5055642;28;20048;-79
2023/09/23 15:50:14;;;;;;;3.65;0.60;;;18.90;84.10;;;;;;5069141;28;20032;-79
2023/09/23 15:52:42;;;;;;;3.42;0.63;;;18.80;84.30;;;;;;5061244;28;20048;-79
2023/09/23 15:55:10;;;;;;;2.28;0.50;;;18.80;84.00;;;;;;5064079;28;20021;-80
2023/09/23 15:57:37;;;;;;;5.85;0.70;;;18.70;83.80;;;;;;5044716;28;20381;-79
2023/09/23 16:00:04;;;;;;;2.20;0.57;;;18.60;84.00;;;;;;5065218;28;20040;-80
2023/09/23 16:02:31;;;;;;;5.43;0.70;;;18.50;84.20;;;;;;5064172;28;20031;-79
2023/09/23 16:04:57;;;;;;;4.13;0.93;;;18.50;84.70;;;;;;5037985;28;20040;-80
2023/09/23 16:07:22;;;;;;;3.33;0.70;;;18.50;84.90;;;;;;5054109;28;20057;-78
2023/09/23 16:09:48;;;;;;;2.03;0.60;;;18.40;85.30;;;;;;5052970;28;20029;-78
2023/09/23 16:12:13;;;;;;;3.63;0.73;;;18.30;85.60;;;;;;5072893;28;20025;-78
2023/09/23 16:14:39;;;;;;;2.80;0.50;;;18.30;85.90;;;;;;5064575;28;20476;-79
2023/09/23 16:17:04;;;;;;;3.15;0.85;;;18.20;86.20;;;;;;5064962;28;20106;-80
2023/09/23 16:19:30;;;;;;;4.25;0.50;;;18.20;86.40;;;;;;5072532;28;20101;-79
2023/09/23 16:21:57;;;;;;;2.72;0.52;;;18.20;86.70;;;;;;5065814;28;20051;-79
2023/09/23 16:24:23;;;;;;;3.97;0.60;;;18.10;87.00;;;;;;5062670;28;20028;-84
2023/09/23 16:26:48;;;;;;;2.45;0.60;;;18.00;85.40;;;;;;5066061;28;20029;-82
2023/09/23 16:29:14;;;;;;;1.25;0.40;;;17.90;85.10;;;;;;5072491;28;20021;-85
2023/09/23 16:31:40;;;;;;;1.73;0.50;;;17.80;85.10;;;;;;5068507;28;20040;-83
2023/09/23 16:34:05;;;;;;;3.55;0.57;;;17.60;85.30;;;;;;5053330;28;20028;-83
2023/09/23 16:36:31;;;;;;;3.30;0.50;;;17.50;85.70;;;;;;5055175;28;20039;-85
2023/09/23 16:38:56;;;;;;;2.25;0.68;;;17.40;85.90;;;;;;5073068;28;20029;-83
2023/09/23 16:41:22;;;;;;;4.07;0.73;;;17.30;86.20;;;;;;5072982;28;20384;-82
2023/09/23 16:43:48;;;;;;;2.33;0.70;;;17.30;86.70;;;;;;5072709;28;20016;-82
2023/09/23 16:46:14;;;;;;;2.20;0.60;;;17.20;86.90;;;;;;5072035;28;20025;-84
2023/09/23 16:48:40;;;;;;;1.42;0.47;;;17.10;87.30;;;;;;5067450;28;20384;-83
2023/09/23 16:51:06;;;;;;;4.20;0.45;;;17.10;87.60;;;;;;5072925;28;20046;-82
2023/09/23 16:53:32;;;;;;;2.40;0.45;;;17.00;88.00;;;;;;5072750;28;20399;-82
2023/09/23 16:55:58;;;;;;;3.92;0.65;;;17.00;88.30;;;;;;5072628;28;20020;-82
2023/09/23 16:58:23;;;;;;;2.05;0.60;;;17.00;88.60;;;;;;5070178;28;20037;-81
2023/09/23 17:00:49;;;;;;;3.40;0.80;;;16.90;88.70;;;;;;5070595;28;20102;-82
2023/09/23 17:03:15;;;;;;;4.72;0.60;;;16.90;88.90;;;;;;5062881;28;20424;-82
2023/09/23 17:05:40;;;;;;;5.70;0.90;;;16.90;89.20;;;;;;5051404;28;20016;-81
2023/09/23 17:08:06;;;;;;;2.53;0.60;;;16.80;89.30;;;;;;5063125;28;20021;-81
2023/09/23 17:10:32;;;;;;;1.75;0.47;;;16.80;89.50;;;;;;5050349;28;20114;-81
2023/09/23 17:12:58;;;;;;;1.40;0.50;;;16.80;89.70;;;;;;5072479;28;20020;-82
2023/09/23 17:15:24;;;;;;;2.47;0.40;;;16.80;90.00;;;;;;5072058;28;20142;-81
2023/09/23 17:17:49;;;;;;;2.95;0.45;;;16.70;90.00;;;;;;5054880;28;20028;-82
2023/09/23 17:20:15;;;;;;;5.20;0.57;;;16.70;90.00;;;;;;5071843;28;20025;-81
2023/09/23 17:22:41;;;;;;;2.70;0.40;;;16.60;90.00;;;;;;5075019;28;20029;-82
2023/09/23 17:25:07;;;;;;;2.25;0.50;;;16.60;90.20;;;;;;5058124;28;20407;-81
2023/09/23 17:27:34;;;;;;;2.88;0.50;;;16.60;90.40;;;;;;5076452;28;20526;-82
2023/09/23 17:30:00;;;;;;;2.30;0.40;;;16.50;90.40;;;;;;5076319;28;20039;-82
2023/09/23 17:32:26;;;;;;;2.05;0.40;;;16.50;90.60;;;;;;5075905;28;20013;-81
2023/09/23 17:34:52;;;;;;;4.30;0.70;;;16.40;90.60;;;;;;5075834;28;20032;-81
2023/09/23 17:37:17;;;;;;;2.75;0.30;;;16.30;90.70;;;;;;5076166;28;20502;-82
2023/09/23 17:39:43;;;;;;;4.72;0.68;;;16.30;90.80;;;;;;5075672;28;20033;-81
2023/09/23 17:42:10;;;;;;;2.83;0.50;;;16.20;90.90;;;;;;5058497;28;20021;-82
2023/09/23 17:44:37;;;;;;;2.30;0.40;;;16.20;91.00;;;;;;5075636;28;20066;-82
2023/09/23 17:47:03;;;;;;;3.97;0.60;;;16.10;91.00;;;;;;5075568;28;20020;-82
2023/09/23 17:49:29;;;;;;;2.13;0.52;;;16.00;91.10;;;;;;5075534;28;20024;-82
2023/09/23 17:51:55;;;;;;;3.67;0.40;;;16.00;91.20;;;;;;5075755;28;20017;-82
2023/09/23 17:54:20;;;;;;;2.65;0.60;;;16.00;91.30;;;;;;5059110;28;20028;-82
2023/09/23 17:56:46;;;;;;;2.50;0.55;;;15.90;91.40;;;;;;5075367;28;20020;-82
2023/09/23 17:59:11;;;;;;;2.60;0.50;;;15.90;91.50;;;;;;5057038;28;20484;-82
2023/09/23 18:01:37;;;;;;;4.22;0.60;;;15.80;91.60;;;;;;5074913;28;20040;-82
2023/09/23 18:04:03;;;;;;;4.55;0.70;;;15.80;91.70;;;;;;5054282;28;20116;-84
2023/09/23 18:06:28;;;;;;;1.95;0.60;;;15.80;91.90;;;;;;5068406;28;20116;-82
2023/09/23 18:08:55;;;;;;;2.40;0.50;;;15.80;92.00;;;;;;5059965;28;20143;-82
2023/09/23 18:11:21;;;;;;;2.33;0.70;;;15.80;92.00;;;;;;5067950;28;20051;-83
2023/09/23 18:13:47;;;;;;;4.80;0.80;;;15.70;92.10;;;;;;5071662;28;20056;-82
2023/09/23 18:16:13;;;;;;;2.47;0.50;;;15.70;92.30;;;;;;5056760;28;20013;-83
2023/09/23 18:18:43;;;;;;;2.17;0.50;;;15.70;92.30;;;;;;5074448;28;20031;-81
2023/09/23 18:21:09;;;;;;;1.55;0.50;;;15.70;92.50;;;;;;5074817;28;20024;-82
2023/09/23 18:23:35;;;;;;;1.85;0.57;;;15.70;92.50;;;;;;5074804;28;20024;-82
2023/09/23 18:26:01;;;;;;;1.52;0.63;;;15.70;92.50;;;;;;5074453;28;20020;-82
2023/09/23 18:28:27;;;;;;;1.58;0.60;;;15.70;92.70;;;;;;5073598;28;20036;-82
2023/09/23 18:30:53;;;;;;;4.60;0.85;;;15.60;92.80;;;;;;5073696;28;20016;-82
2023/09/23 18:33:18;;;;;;;2.10;0.60;;;15.60;92.80;;;;;;5073083;28;20031;-82
2023/09/23 18:35:44;;;;;;;3.03;0.73;;;15.60;92.80;;;;;;5075250;28;20013;-82
2023/09/23 18:38:10;;;;;;;4.97;0.88;;;15.60;92.90;;;;;;5064629;28;20024;-82
2023/09/23 18:40:36;;;;;;;5.85;0.80;;;15.50;93.00;;;;;;5071645;28;20032;-82
2023/09/23 18:43:02;;;;;;;3.88;0.70;;;15.50;93.10;;;;;;5056712;28;20040;-82
2023/09/23 18:45:27;;;;;;;2.08;0.63;;;15.40;93.20;;;;;;5074337;28;20048;-82
2023/09/23 18:47:53;;;;;;;2.38;0.63;;;15.40;93.20;;;;;;5060196;28;20021;-82
2023/09/23 18:50:20;;;;;;;1.67;0.45;;;15.40;93.30;;;;;;5067464;28;20087;-82
2023/09/23 18:52:46;;;;;;;3.15;0.90;;;15.30;93.40;;;;;;5060521;28;20107;-81
2023/09/23 18:55:11;;;;;;;4.72;0.80;;;15.30;93.50;;;;;;5057713;28;20132;-82
2023/09/23 18:57:37;;;;;;;3.75;0.80;;;15.30;93.60;;;;;;5060698;28;20044;-83
2023/09/23 19:00:05;;;;;;;5.80;0.90;;;15.30;93.70;;;;;;5055849;28;20037;-83
2023/09/23 19:02:31;;;;;;;5.00;1.10;;;15.30;93.70;;;;;;5062653;28;20027;-83
2023/09/23 19:04:57;;;;;;;4.85;1.20;;;15.30;93.90;;;;;;5056358;28;20025;-83
2023/09/23 19:07:22;;;;;;;6.82;1.10;;;15.20;94.10;;;;;;5074158;28;20048;-83
2023/09/23 19:09:49;;;;;;;4.20;1.10;;;15.20;94.20;;;;;;5074661;28;20056;-84
2023/09/23 19:12:14;;;;;;;5.68;1.30;;;15.30;94.40;;;;;;5074785;28;20013;-83
2023/09/23 19:14:40;;;;;;;3.67;1.30;;;15.30;94.50;;;;;;5074000;28;20558;-83
2023/09/23 19:17:05;;;;;;;4.38;1.40;;;15.20;94.60;;;;;;5074194;28;20059;-83
2023/09/23 19:19:31;;;;;;;4.75;1.60;;;15.20;94.70;;;;;;5074060;28;20025;-83
2023/09/23 19:21:57;;;;;;;4.50;1.65;;;15.20;94.80;;;;;;5055985;28;20016;-83
2023/09/23 19:24:22;;;;;;;3.85;1.80;;;15.30;94.90;;;;;;5055876;28;20033;-84
2023/09/23 19:26:49;;;;;;;6.05;1.65;;;15.20;95.10;;;;;;5073766;28;20024;-84
2023/09/23 19:29:15;;;;;;;3.45;1.55;;;15.30;95.20;;;;;;5073329;28;20067;-84
2023/09/23 19:31:41;;;;;;;5.70;2.00;;;15.20;95.40;;;;;;5055999;28;20082;-84
2023/09/23 19:34:07;;;;;;;6.88;2.75;;;15.20;95.60;;;;;;5073614;28;20024;-83
2023/09/23 19:36:33;;;;;;;5.63;1.95;;;15.20;95.70;;;;;;5074149;28;20034;-84
2023/09/23 19:38:59;;;;;;;4.82;1.70;;;15.30;96.10;;;;;;5073880;28;20028;-84
2023/09/23 19:41:25;;;;;;;4.38;1.25;;;15.30;96.20;;;;;;5073771;28;20034;-83
2023/09/23 19:43:51;;;;;;;3.28;1.40;;;15.20;96.30;;;;;;5072325;28;20028;-84
2023/09/23 19:46:19;;;;;;;3.58;1.00;;;15.20;96.30;;;;;;5073600;28;20066;-84
2023/09/23 19:48:46;;;;;;;2.03;0.95;;;15.30;96.30;;;;;;5055599;28;20452;-84
2023/09/23 19:51:12;;;;;;;2.95;0.80;;;15.30;96.30;;;;;;5055560;28;20060;-83
2023/09/23 19:53:39;;;;;;;2.30;0.77;;;15.30;96.30;;;;;;5073407;28;20371;-83
2023/09/23 19:56:04;;;;;;;3.83;0.90;;;15.30;96.30;;;;;;5073598;28;20024;-83
2023/09/23 19:58:30;;;;;;;2.55;0.98;;;15.30;96.30;;;;;;5073305;28;20392;-83
2023/09/23 20:00:56;;;;;;;4.25;1.00;;;15.30;96.40;;;;;;5073115;28;20040;-83
2023/09/23 20:03:22;;;;;;;4.70;1.25;;;15.30;96.40;;;;;;5073374;28;20059;-83
2023/09/23 20:05:47;;;;;;;4.68;1.10;;;15.30;96.50;;;;;;5055313;28;20036;-83
2023/09/23 20:08:13;;;;;;;2.85;1.17;;;15.30;96.60;;;;;;5072851;28;20102;-83
2023/09/23 20:10:42;;;;;;;3.92;1.38;;;15.30;96.60;;;;;;5073197;28;20151;-83
2023/09/23 20:13:11;;;;;;;3.70;1.60;;;15.30;96.70;;;;;;5052239;28;20013;-84
2023/09/23 20:15:37;;;;;;;4.45;1.42;;;15.20;96.70;;;;;;5088236;28;20020;-83
2023/09/23 20:18:05;;;;;;;4.07;1.80;;;15.30;96.70;;;;;;5073343;28;20384;-83
2023/09/23 20:20:33;;;;;;;4.50;1.17;;;15.20;96.70;;;;;;5064954;28;20374;-84
2023/09/23 20:23:00;;;;;;;5.15;1.60;;;15.20;96.80;;;;;;5049595;28;20378;-84
2023/09/23 20:25:26;;;;;;;4.90;1.73;;;15.20;96.80;;;;;;5049164;28;20029;-83
2023/09/23 20:27:52;;;;;;;5.03;1.58;;;15.10;96.90;;;;;;5049148;28;20033;-84
2023/09/23 20:30:18;;;;;;;7.82;2.17;;;15.10;96.90;;;;;;5048969;28;20029;-83
2023/09/23 20:32:43;;;;;;;4.43;1.52;;;15.10;97.00;;;;;;5067369;28;20024;-83
2023/09/23 20:35:13;;;;;;;4.28;1.58;;;15.10;97.00;;;;;;5073774;28;20032;-83
2023/09/23 20:37:39;;;;;;;6.35;2.05;;;15.10;97.00;;;;;;5069226;28;20059;-83
2023/09/23 20:40:12;;;;;;;5.22;2.88;;;15.00;97.00;;;;;;5069422;28;20029;-83
2023/09/23 20:42:39;;;;;;;7.13;2.08;;;14.90;97.00;;;;;;5069249;28;20024;-82
2023/09/23 20:45:06;;;;;;;5.03;2.28;;;14.90;97.10;;;;;;5067927;28;20410;-82
2023/09/23 20:47:35;;;;;;;4.25;2.17;;;14.80;97.10;;;;;;5069279;28;20104;-83
2023/09/23 20:50:05;;;;;;;5.50;2.22;;;14.80;97.30;;;;;;5069560;28;20037;-82
2023/09/23 20:52:32;;;;;;;3.50;2.03;;;14.70;97.30;;;;;;5067703;28;20102;-83
2023/09/23 20:54:58;;;;;;;6.47;2.45;;;14.70;97.50;;;;;;5067367;28;20024;-82
2023/09/23 20:57:24;;;;;;;5.28;2.67;;;14.70;97.50;;;;;;5069354;28;20646;-83
2023/09/23 20:59:50;;;;;;;4.50;2.38;;;14.60;97.60;;;;;;5072673;28;20048;-83
2023/09/23 21:02:17;;;;;;;4.55;2.42;;;14.60;97.70;;;;;;5071589;28;20384;-83
2023/09/23 21:04:45;;;;;;;3.60;2.00;;;14.50;97.80;;;;;;5071864;28;20024;-83
2023/09/23 21:07:11;;;;;;;5.90;2.97;;;14.50;97.80;;;;;;5071915;28;20040;-83
2023/09/23 21:09:39;;;;;;;4.85;2.30;;;14.50;97.90;;;;;;5072854;28;20499;-83
2023/09/23 21:12:06;;;;;;;6.53;2.70;;;14.50;98.00;;;;;;5071496;28;20032;-85
2023/09/23 21:14:32;;;;;;;6.65;2.53;;;14.40;98.10;;;;;;5073193;28;20098;-85
2023/09/23 21:16:58;;;;;;;6.88;2.70;;;14.40;98.10;;;;;;5073051;28;20479;-85
2023/09/23 21:19:23;;;;;;;6.32;2.80;;;14.40;98.20;;;;;;5073012;28;20029;-85
2023/09/23 21:21:49;;;;;;;5.43;2.50;;;14.40;98.20;;;;;;5073060;28;20391;-85
2023/09/23 21:24:16;;;;;;;5.80;2.75;;;14.40;98.30;;;;;;5072988;28;20415;-86
2023/09/23 21:26:41;;;;;;;6.18;2.72;;;14.30;98.30;;;;;;5073263;28;20039;-85
2023/09/23 21:29:07;;;;;;;6.38;3.10;;;14.30;98.40;;;;;;5071728;28;20028;-86
2023/09/23 21:31:33;;;;;;;9.23;2.78;;;14.20;98.40;;;;;;5071579;28;20043;-85
2023/09/23 21:33:59;;;;;;;10.80;3.30;;;14.20;98.60;;;;;;5072834;28;20033;-85
2023/09/23 21:36:24;;;;;;;9.90;3.42;;;14.10;98.70;;;;;;5072728;28;20025;-85
2023/09/23 21:38:50;;;;;;;10.02;3.80;;;14.10;98.80;;;;;;5071580;28;20028;-85
2023/09/23 21:41:16;;;;;;;7.40;3.45;;;14.00;98.80;;;;;;5072941;28;20098;-86
2023/09/23 21:43:42;;;;;;;9.68;3.53;;;14.00;98.90;;;;;;5071963;28;20036;-85
2023/09/23 21:46:08;;;;;;;5.80;3.40;;;14.00;99.00;;;;;;5073035;28;20024;-85